Time;durP1;ratioP1;P1;durP2;ratioP2;P2;SDS_P1;SDS_P2;PMS_P1;PMS_P2;Temp;Humidity;BMP_temperature;BMP_pressure;BME280_temperature;BME280_humidity;BME280_pressure;Samples;Min_cycle;Max_cycle;Signal;HPM_P1;HPM_P2
2021/12/26 00:04:39;;;;;;;0.20;0.10;;;10.00;99.90;;;;;;20713564;28;20708;-77
2021/12/26 00:14:45;;;;;;;0.20;0.00;;;10.10;99.90;;;;;;20718136;28;20224;-77
2021/12/26 00:24:51;;;;;;;0.20;0.10;;;9.90;99.90;;;;;;20753435;28;20613;-78
2021/12/26 00:34:59;;;;;;;0.20;0.03;;;9.90;99.90;;;;;;20756857;28;20775;-77
2021/12/26 00:45:05;;;;;;;0.20;0.10;;;9.90;99.90;;;;;;20755796;28;20289;-77
2021/12/26 00:55:12;;;;;;;0.20;0.10;;;9.50;99.90;;;;;;20755170;28;20198;-77
2021/12/26 01:05:17;;;;;;;0.20;0.10;;;9.60;99.90;;;;;;20777345;23;20240;-77
2021/12/26 01:15:23;;;;;;;0.20;0.10;;;9.90;99.90;;;;;;20825059;28;20617;-76
2021/12/26 01:25:29;;;;;;;0.20;0.10;;;9.50;99.90;;;;;;20831888;28;20220;-76
2021/12/26 01:35:32;;;;;;;0.20;0.10;;;9.10;99.90;;;;;;20811524;28;20221;-76
2021/12/26 01:45:37;;;;;;;0.20;0.07;;;9.50;99.90;;;;;;20831407;28;20252;-77
2021/12/26 01:55:43;;;;;;;0.20;0.10;;;9.60;99.90;;;;;;20831181;28;20738;-78
2021/12/26 02:05:49;;;;;;;0.20;0.10;;;9.50;99.90;;;;;;20842117;22;20244;-77
2021/12/26 02:15:53;;;;;;;0.20;0.10;;;10.20;99.90;;;;;;20829440;28;20206;-77
2021/12/26 02:36:19;;;;;;;0.20;0.10;;;11.80;99.90;;;;;;20828773;28;20306;-77
2021/12/26 02:46:26;;;;;;;0.20;0.10;;;11.90;99.90;;;;;;20827170;28;20261;-79
2021/12/26 02:56:34;;;;;;;0.20;0.00;;;11.70;99.90;;;;;;20795351;28;20221;-77
2021/12/26 03:06:47;;;;;;;0.20;0.10;;;11.70;99.90;;;;;;20840542;23;20273;-74
2021/12/26 03:16:53;;;;;;;0.20;0.00;;;11.00;99.90;;;;;;20826441;28;20722;-74
2021/12/26 03:27:01;;;;;;;0.20;0.10;;;10.60;99.90;;;;;;20826148;28;20726;-73
2021/12/26 03:37:06;;;;;;;0.20;0.10;;;10.50;99.90;;;;;;20827070;28;20228;-77
2021/12/26 03:47:11;;;;;;;0.20;0.10;;;10.50;99.90;;;;;;20826066;28;20629;-76
2021/12/26 03:57:15;;;;;;;0.20;0.10;;;10.60;99.90;;;;;;20816007;28;20194;-77
2021/12/26 04:07:20;;;;;;;0.20;0.10;;;10.70;99.90;;;;;;20838597;28;20314;-75
2021/12/26 04:17:23;;;;;;;0.20;0.10;;;11.20;99.90;;;;;;20837775;28;20520;-75
2021/12/26 04:27:28;;;;;;;0.20;0.10;;;11.40;99.90;;;;;;20818480;28;20325;-75
2021/12/26 04:37:34;;;;;;;0.20;0.10;;;11.30;99.90;;;;;;20836175;28;20296;-75
2021/12/26 04:47:40;;;;;;;0.20;0.10;;;11.20;99.90;;;;;;20835057;28;20252;-76
2021/12/26 04:57:44;;;;;;;0.20;0.10;;;11.40;99.90;;;;;;20834526;28;20309;-76
2021/12/26 05:07:49;;;;;;;0.20;0.10;;;11.30;99.90;;;;;;20814622;28;20240;-75
2021/12/26 05:17:54;;;;;;;0.20;0.10;;;10.90;99.90;;;;;;20832729;28;20213;-77
2021/12/26 05:27:59;;;;;;;0.20;0.10;;;11.00;99.90;;;;;;20811969;28;20758;-78
2021/12/26 05:38:03;;;;;;;0.20;0.10;;;11.00;99.90;;;;;;20814586;28;20212;-78
2021/12/26 05:48:08;;;;;;;5.93;5.63;;;11.00;99.90;;;;;;20813262;28;20317;-77
2021/12/26 05:58:12;;;;;;;0.20;0.10;;;11.00;99.90;;;;;;20812352;28;20213;-76
2021/12/26 06:08:18;;;;;;;0.20;0.10;;;11.00;99.90;;;;;;20828289;28;20252;-74
2021/12/26 06:18:22;;;;;;;0.20;0.10;;;11.10;99.90;;;;;;20827640;28;20578;-76
2021/12/26 06:28:27;;;;;;;0.20;0.00;;;10.80;99.90;;;;;;20810207;28;20233;-77
2021/12/26 06:38:31;;;;;;;0.20;0.10;;;10.70;99.90;;;;;;20827084;28;20217;-76
2021/12/26 06:48:38;;;;;;;0.20;0.10;;;10.70;99.90;;;;;;20827129;28;20563;-77
2021/12/26 06:58:42;;;;;;;0.20;0.10;;;10.60;99.90;;;;;;20828598;28;20289;-77
2021/12/26 07:08:48;;;;;;;0.20;0.10;;;10.40;99.90;;;;;;20825243;28;20242;-77
2021/12/26 07:18:51;;;;;;;0.20;0.10;;;10.40;99.90;;;;;;20826255;28;20202;-78
2021/12/26 07:28:56;;;;;;;0.20;0.10;;;10.10;99.90;;;;;;20812878;28;20218;-77
2021/12/26 07:39:00;;;;;;;0.20;0.10;;;10.20;99.90;;;;;;20822930;28;20194;-77
2021/12/26 07:49:06;;;;;;;0.20;0.10;;;10.30;99.90;;;;;;20838865;28;20233;-77
2021/12/26 07:59:11;;;;;;;0.20;0.10;;;10.50;99.90;;;;;;20838840;28;20190;-77
2021/12/26 08:09:23;;;;;;;0.20;0.10;;;10.90;99.90;;;;;;20819231;28;20280;-76
2021/12/26 08:19:26;;;;;;;0.20;0.10;;;11.10;99.90;;;;;;20837823;28;20227;-76
2021/12/26 08:29:32;;;;;;;0.20;0.10;;;11.40;99.90;;;;;;20839378;28;20252;-75
2021/12/26 08:39:40;;;;;;;0.20;0.10;;;11.90;99.90;;;;;;20813477;28;20564;-74
2021/12/26 08:49:45;;;;;;;0.20;0.10;;;12.20;99.90;;;;;;20837504;28;20227;-74
2021/12/26 08:59:48;;;;;;;0.20;0.10;;;12.60;99.90;;;;;;20837074;28;20291;-75
2021/12/26 09:09:53;;;;;;;0.20;0.10;;;13.00;99.90;;;;;;20832606;28;20642;-78
2021/12/26 09:19:57;;;;;;;0.20;0.10;;;13.50;99.90;;;;;;20832710;28;20220;-77
2021/12/26 09:30:04;;;;;;;0.20;0.10;;;13.80;99.90;;;;;;20818737;28;20644;-78
2021/12/26 09:40:09;;;;;;;0.20;0.00;;;14.10;99.90;;;;;;20831439;28;20258;-79
2021/12/26 09:50:15;;;;;;;0.20;0.00;;;14.40;99.90;;;;;;20831988;28;20332;-76
2021/12/26 10:00:25;;;;;;;0.20;0.10;;;14.70;99.90;;;;;;20829194;28;20233;-75
2021/12/26 10:10:30;;;;;;;0.20;0.10;;;14.90;99.90;;;;;;20828811;28;20229;-74
2021/12/26 10:20:36;;;;;;;0.20;0.10;;;15.40;99.90;;;;;;20827907;28;20202;-75
2021/12/26 10:30:45;;;;;;;0.20;0.10;;;15.30;99.90;;;;;;20827246;28;20423;-83
2021/12/26 10:40:51;;;;;;;0.20;0.10;;;15.70;99.90;;;;;;20811878;28;20194;-77
2021/12/26 10:50:56;;;;;;;0.20;0.10;;;16.30;99.90;;;;;;20819018;28;20244;-77
2021/12/26 11:01:00;;;;;;;0.20;0.00;;;16.30;99.90;;;;;;20811931;28;20225;-73
2021/12/26 11:11:14;;;;;;;0.20;0.00;;;15.80;99.90;;;;;;20812081;28;20221;-76
2021/12/26 11:21:17;;;;;;;0.20;0.10;;;15.80;99.90;;;;;;20817079;28;20234;-78
2021/12/26 11:31:25;;;;;;;0.20;0.10;;;16.10;99.90;;;;;;20834309;28;20236;-75
2021/12/26 11:41:38;;;;;;;0.20;0.10;;;16.60;99.90;;;;;;20829473;28;20729;-76
2021/12/26 11:51:57;;;;;;;0.70;0.70;;;16.70;99.90;;;;;;20818890;28;20225;-79
2021/12/26 12:02:01;;;;;;;0.20;0.10;;;17.90;99.90;;;;;;20775477;28;20277;-76
2021/12/26 12:12:10;;;;;;;0.20;0.00;;;18.80;99.90;;;;;;20804471;28;20317;-76
2021/12/26 12:22:13;;;;;;;0.20;0.10;;;20.40;99.90;;;;;;20832954;28;20213;-76
2021/12/26 12:32:21;;;;;;;0.40;0.40;;;20.30;99.90;;;;;;20833148;28;20305;-74
2021/12/26 12:42:25;;;;;;;0.20;0.00;;;20.60;99.90;;;;;;20831811;28;20681;-72
2021/12/26 12:52:44;;;;;;;0.20;0.00;;;19.70;99.90;;;;;;20830696;28;20226;-77
2021/12/26 13:02:48;;;;;;;0.20;0.20;;;19.50;99.90;;;;;;20814356;28;20305;-77
2021/12/26 13:13:03;;;;;;;0.20;0.00;;;20.60;99.90;;;;;;20830591;28;20225;-76
2021/12/26 13:23:06;;;;;;;0.20;0.10;;;19.30;99.90;;;;;;20807133;28;20681;-75
2021/12/26 13:33:16;;;;;;;0.20;0.10;;;19.00;99.90;;;;;;20828609;28;20574;-76
2021/12/26 13:43:28;;;;;;;0.20;0.20;;;19.30;99.90;;;;;;20830236;28;20284;-76
2021/12/26 13:53:37;;;;;;;0.20;0.10;;;20.30;99.90;;;;;;20828771;28;20750;-75
2021/12/26 14:03:46;;;;;;;0.20;0.00;;;19.50;99.90;;;;;;20827878;28;20328;-74
2021/12/26 14:13:57;;;;;;;0.20;0.10;;;19.30;99.90;;;;;;20827363;28;20221;-74
2021/12/26 14:24:00;;;;;;;0.20;0.00;;;19.00;99.90;;;;;;20809407;28;20288;-76
2021/12/26 14:34:11;;;;;;;0.20;0.10;;;17.90;99.90;;;;;;20825779;28;20776;-78
2021/12/26 14:44:19;;;;;;;0.20;0.10;;;17.60;99.90;;;;;;20824123;28;20228;-77
2021/12/26 14:54:34;;;;;;;0.20;0.10;;;17.50;99.90;;;;;;20825721;28;20222;-79
2021/12/26 15:04:40;;;;;;;0.20;0.07;;;16.90;99.90;;;;;;20825665;28;20308;-76
2021/12/26 15:14:45;;;;;;;0.20;0.00;;;16.90;99.90;;;;;;20825851;28;20228;-76
2021/12/26 15:24:50;;;;;;;0.20;0.10;;;16.50;99.90;;;;;;20825493;28;20197;-76
2021/12/26 15:34:56;;;;;;;0.20;0.00;;;16.10;99.90;;;;;;20807608;28;20264;-78
2021/12/26 15:44:59;;;;;;;0.20;0.00;;;16.00;99.90;;;;;;20823443;28;20228;-79
2021/12/26 15:55:05;;;;;;;0.20;0.03;;;15.60;99.90;;;;;;20837595;28;20616;-75
2021/12/26 16:05:09;;;;;;;0.20;0.00;;;15.40;99.90;;;;;;20837778;28;20240;-77
2021/12/26 16:15:14;;;;;;;0.20;0.10;;;14.80;99.90;;;;;;20835583;28;20570;-76
2021/12/26 16:25:19;;;;;;;0.20;0.00;;;14.40;99.90;;;;;;20833528;28;20194;-79
2021/12/26 16:35:25;;;;;;;0.20;0.00;;;13.90;99.90;;;;;;20803530;28;20290;-79
2021/12/26 16:45:49;;;;;;;0.20;0.03;;;14.00;99.90;;;;;;20798324;28;20221;-77
2021/12/26 16:55:54;;;;;;;0.20;0.10;;;13.90;99.90;;;;;;20825498;28;20296;-77
2021/12/26 17:06:01;;;;;;;0.20;0.00;;;14.00;99.90;;;;;;20800471;28;20226;-78
2021/12/26 17:16:07;;;;;;;0.20;0.10;;;14.10;99.90;;;;;;20820323;28;20222;-73
2021/12/26 17:26:14;;;;;;;0.20;0.10;;;14.00;99.90;;;;;;20822184;28;20201;-75
2021/12/26 17:36:19;;;;;;;0.20;0.20;;;13.50;99.90;;;;;;20823153;28;20232;-72
2021/12/26 17:46:23;;;;;;;0.20;0.00;;;13.70;99.90;;;;;;20829596;28;20237;-72
2021/12/26 17:56:28;;;;;;;0.20;0.00;;;13.60;99.90;;;;;;20819907;28;20230;-76
2021/12/26 18:06:32;;;;;;;0.20;0.10;;;13.60;99.90;;;;;;20820657;28;20245;-72
2021/12/26 18:16:37;;;;;;;0.20;0.10;;;13.40;99.90;;;;;;20811847;28;20288;-73
2021/12/26 18:26:41;;;;;;;0.20;0.00;;;13.30;99.90;;;;;;20803204;28;20293;-73
2021/12/26 18:36:48;;;;;;;0.20;0.10;;;13.30;99.90;;;;;;20817173;28;20703;-76
2021/12/26 18:47:06;;;;;;;0.20;0.10;;;13.30;99.90;;;;;;20800182;28;20245;-75
2021/12/26 18:57:11;;;;;;;0.20;0.00;;;12.90;99.90;;;;;;20798205;28;20230;-76
2021/12/26 19:07:16;;;;;;;0.20;0.10;;;12.90;99.90;;;;;;20807460;28;20257;-76
2021/12/26 19:17:21;;;;;;;0.20;0.10;;;13.20;99.90;;;;;;20801771;28;20725;-77
2021/12/26 19:27:24;;;;;;;0.20;0.10;;;13.20;99.90;;;;;;20829758;28;20198;-74
2021/12/26 19:37:29;;;;;;;0.20;0.00;;;13.00;99.90;;;;;;20832046;28;20226;-74
2021/12/26 19:47:33;;;;;;;0.20;0.10;;;12.70;99.90;;;;;;20815133;28;20245;-74
2021/12/26 19:57:38;;;;;;;0.20;0.10;;;12.90;99.90;;;;;;20833156;28;20226;-75
2021/12/26 20:07:42;;;;;;;0.20;0.10;;;12.90;99.90;;;;;;20825166;28;20232;-76
2021/12/26 20:17:47;;;;;;;0.20;0.10;;;13.00;99.90;;;;;;20786835;28;20218;-76
2021/12/26 20:27:51;;;;;;;0.20;0.10;;;13.20;99.90;;;;;;20737188;28;20253;-74
2021/12/26 20:37:56;;;;;;;0.20;0.00;;;13.20;99.90;;;;;;20787584;28;20230;-73
2021/12/26 20:48:00;;;;;;;0.20;0.00;;;13.10;99.90;;;;;;20810541;28;20210;-73
2021/12/26 20:58:05;;;;;;;0.20;0.10;;;13.00;99.90;;;;;;20811864;28;20321;-73
2021/12/26 21:08:08;;;;;;;0.20;0.10;;;12.90;99.90;;;;;;20828516;28;20321;-73
2021/12/26 21:18:13;;;;;;;0.20;0.10;;;12.90;99.90;;;;;;20827288;28;20225;-73
2021/12/26 21:28:17;;;;;;;0.20;0.10;;;12.80;99.90;;;;;;20793044;28;20209;-75
2021/12/26 21:38:22;;;;;;;0.20;0.10;;;12.60;99.90;;;;;;20826698;28;20237;-73
2021/12/26 21:48:27;;;;;;;0.20;0.10;;;12.40;99.90;;;;;;20808144;28;20194;-73
2021/12/26 21:58:32;;;;;;;0.20;0.10;;;12.30;99.90;;;;;;20824583;28;20218;-73
2021/12/26 22:08:36;;;;;;;0.20;0.10;;;11.80;99.90;;;;;;20824508;28;20226;-73
2021/12/26 22:18:41;;;;;;;0.20;0.03;;;11.40;99.90;;;;;;20822574;28;20225;-72
2021/12/26 22:28:45;;;;;;;0.20;0.10;;;11.30;99.90;;;;;;20804598;28;20194;-74
2021/12/26 22:38:50;;;;;;;0.20;0.00;;;12.50;99.90;;;;;;20822215;28;20226;-73
2021/12/26 22:48:54;;;;;;;0.20;0.10;;;13.20;99.90;;;;;;20821088;28;20202;-76
2021/12/26 22:58:59;;;;;;;0.20;0.10;;;13.40;99.90;;;;;;20826655;28;20705;-75
2021/12/26 23:09:04;;;;;;;0.20;0.10;;;13.30;99.90;;;;;;20838337;28;20249;-75
2021/12/26 23:19:10;;;;;;;0.20;0.10;;;13.20;99.90;;;;;;20837611;28;20644;-76
2021/12/26 23:29:13;;;;;;;0.20;0.10;;;13.50;99.90;;;;;;20837239;28;20201;-74
2021/12/26 23:39:20;;;;;;;0.20;0.00;;;13.60;99.90;;;;;;20835951;28;20253;-74
2021/12/26 23:49:23;;;;;;;0.20;0.10;;;13.60;99.90;;;;;;20835625;28;20206;-73
2021/12/26 23:59:28;;;;;;;0.20;0.10;;;13.70;99.90;;;;;;20816470;28;20230;-74
